createdAt,value
2022-10-22T00:01:43.541Z,24.45
2022-10-22T00:03:46.474Z,28.60
2022-10-22T00:05:49.795Z,29.60
2022-10-22T00:07:52.544Z,24.65
2022-10-22T00:09:55.308Z,30.17
2022-10-22T00:11:58.022Z,27.27
2022-10-22T00:14:00.727Z,31.95
2022-10-22T00:16:03.407Z,27.35
2022-10-22T00:18:08.177Z,25.90
2022-10-22T00:20:12.200Z,28.65
2022-10-22T00:22:15.275Z,26.08
2022-10-22T00:24:17.975Z,24.60
2022-10-22T00:26:20.660Z,24.30
2022-10-22T00:28:22.573Z,25.90
2022-10-22T00:30:25.294Z,21.45
2022-10-22T00:32:28.175Z,21.38
2022-10-22T00:34:32.263Z,30.70
2022-10-22T00:36:35.033Z,26.85
2022-10-22T00:38:38.387Z,22.52
2022-10-22T00:40:41.160Z,27.55
2022-10-22T00:42:44.087Z,29.10
2022-10-22T00:45:08.233Z,24.85
2022-10-22T00:47:11.496Z,21.95
2022-10-22T00:49:14.341Z,25.20
2022-10-22T00:51:19.757Z,22.40
2022-10-22T00:53:25.814Z,20.90
2022-10-22T00:55:29.927Z,25.80
2022-10-22T00:57:33.369Z,26.23
2022-10-22T00:59:37.221Z,22.83
2022-10-22T01:01:40.039Z,22.48
2022-10-22T01:03:42.976Z,21.88
2022-10-22T01:05:53.033Z,24.83
2022-10-22T01:07:57.252Z,23.13
2022-10-22T01:10:07.984Z,23.35
2022-10-22T01:12:18.791Z,22.33
2022-10-22T01:14:29.468Z,22.60
2022-10-22T01:16:38.523Z,22.00
2022-10-22T01:18:51.403Z,20.83
2022-10-22T01:21:22.347Z,21.80
2022-10-22T01:24:05.527Z,23.35
2022-10-22T01:26:20.384Z,24.00
2022-10-22T01:28:33.040Z,25.05
2022-10-22T01:30:39.303Z,23.50
2022-10-22T01:32:46.616Z,25.35
2022-10-22T01:34:52.880Z,22.38
2022-10-22T01:36:56.808Z,24.55
2022-10-22T01:39:01.555Z,24.77
2022-10-22T01:41:04.574Z,25.10
2022-10-22T01:43:09.572Z,24.52
2022-10-22T01:45:14.224Z,23.95
2022-10-22T01:47:24.982Z,22.88
2022-10-22T01:49:39.813Z,26.27
2022-10-22T01:52:00.536Z,22.40
2022-10-22T01:54:12.639Z,22.85
2022-10-22T01:56:25.916Z,20.20
2022-10-22T01:58:40.326Z,24.58
2022-10-22T02:00:48.871Z,21.48
2022-10-22T02:02:59.465Z,18.42
2022-10-22T02:05:08.076Z,24.90
2022-10-22T02:07:14.872Z,20.15
2022-10-22T02:09:20.939Z,22.40
2022-10-22T02:11:23.656Z,21.27
2022-10-22T02:13:29.858Z,26.92
2022-10-22T02:15:35.908Z,32.67
2022-10-22T02:17:40.215Z,40.45
2022-10-22T02:19:49.291Z,46.67
2022-10-22T02:21:52.353Z,54.42
2022-10-22T02:23:55.356Z,48.72
2022-10-22T02:26:04.756Z,48.03
2022-10-22T02:28:16.405Z,23.17
2022-10-22T02:30:21.494Z,19.90
2022-10-22T02:32:28.087Z,16.50
2022-10-22T02:34:32.875Z,14.07
2022-10-22T02:36:39.282Z,12.05
2022-10-22T02:38:43.149Z,12.85
2022-10-22T02:40:45.968Z,11.30
2022-10-22T02:42:49.954Z,8.88
2022-10-22T02:44:53.097Z,12.35
2022-10-22T02:46:55.946Z,13.52
2022-10-22T02:48:58.903Z,9.77
2022-10-22T02:51:01.864Z,11.10
2022-10-22T02:53:05.862Z,14.30
2022-10-22T02:55:09.475Z,22.50
2022-10-22T02:57:12.234Z,30.35
2022-10-22T02:59:14.926Z,28.85
2022-10-22T03:01:18.597Z,33.80
2022-10-22T03:03:21.369Z,27.60
2022-10-22T03:05:24.082Z,32.20
2022-10-22T03:07:27.005Z,33.58
2022-10-22T03:09:31.290Z,32.30
2022-10-22T03:11:34.133Z,40.67
2022-10-22T03:13:37.039Z,43.47
2022-10-22T03:15:39.744Z,50.35
2022-10-22T03:17:42.882Z,51.05
2022-10-22T03:19:46.299Z,46.63
2022-10-22T03:21:51.564Z,55.45
2022-10-22T03:23:54.950Z,63.38
2022-10-22T03:28:09.716Z,63.17
2022-10-22T03:30:13.155Z,56.92
2022-10-22T03:32:16.252Z,53.33
2022-10-22T03:34:19.128Z,51.55
2022-10-22T03:36:21.927Z,45.00
2022-10-22T03:38:25.063Z,38.72
2022-10-22T03:40:28.122Z,35.22
2022-10-22T03:42:32.393Z,38.42
2022-10-22T03:44:37.338Z,35.97
2022-10-22T03:46:40.068Z,35.65
2022-10-22T03:48:42.956Z,33.00
2022-10-22T03:50:45.964Z,32.25
2022-10-22T03:52:48.943Z,41.92
2022-10-22T03:54:51.951Z,41.22
2022-10-22T03:56:54.622Z,53.83
2022-10-22T03:59:01.802Z,57.88
2022-10-22T04:01:06.352Z,58.03
2022-10-22T04:03:09.088Z,60.72
2022-10-22T04:05:12.019Z,63.67
2022-10-22T04:07:14.750Z,61.63
2022-10-22T04:09:17.554Z,90.13
2022-10-22T04:11:20.323Z,51.50
2022-10-22T04:13:22.995Z,62.70
2022-10-22T04:15:28.906Z,65.38
2022-10-22T04:17:35.535Z,63.75
2022-10-22T04:19:38.249Z,63.60
2022-10-22T04:21:40.922Z,67.50
2022-10-22T04:23:46.722Z,69.22
2022-10-22T04:25:49.719Z,59.53
2022-10-22T04:27:52.385Z,83.50
2022-10-22T04:29:55.068Z,79.03
2022-10-22T04:31:59.069Z,81.68
2022-10-22T04:34:02.986Z,69.88
2022-10-22T04:36:11.463Z,77.80
2022-10-22T04:38:14.394Z,78.25
2022-10-22T04:40:17.135Z,86.40
2022-10-22T04:42:20.076Z,77.78
2022-10-22T04:44:22.788Z,92.32
2022-10-22T04:46:27.706Z,73.07
2022-10-22T04:48:31.814Z,85.57
2022-10-22T04:50:34.518Z,77.18
2022-10-22T04:52:37.254Z,79.10
2022-10-22T04:54:40.026Z,72.03
2022-10-22T04:56:42.819Z,60.33
2022-10-22T04:58:45.580Z,57.00
2022-10-22T05:00:48.353Z,49.15
2022-10-22T05:02:51.656Z,46.95
2022-10-22T05:04:55.711Z,35.88
2022-10-22T05:06:58.630Z,41.65
2022-10-22T05:09:03.193Z,35.67
2022-10-22T05:11:13.033Z,31.70
2022-10-22T05:13:15.736Z,38.28
2022-10-22T05:15:18.956Z,31.77
2022-10-22T05:17:21.737Z,35.75
2022-10-22T05:19:26.360Z,36.60
2022-10-22T05:21:31.116Z,31.42
2022-10-22T05:23:33.928Z,34.97
2022-10-22T05:25:38.913Z,43.88
2022-10-22T05:27:42.031Z,42.97
2022-10-22T05:29:44.928Z,34.13
2022-10-22T05:31:47.925Z,36.22
2022-10-22T05:33:50.685Z,37.17
2022-10-22T05:35:53.833Z,38.50
2022-10-22T05:37:57.954Z,39.75
2022-10-22T05:40:12.474Z,36.08
2022-10-22T05:42:23.569Z,33.75
2022-10-22T05:44:26.515Z,50.10
2022-10-22T05:46:31.622Z,55.85
2022-10-22T05:48:35.036Z,51.85
2022-10-22T05:50:38.554Z,60.03
2022-10-22T05:52:41.666Z,70.85
2022-10-22T05:54:45.799Z,68.13
2022-10-22T05:56:49.129Z,66.43
2022-10-22T05:58:52.326Z,72.20
2022-10-22T06:00:55.068Z,66.40
2022-10-22T06:02:57.783Z,65.40
2022-10-22T06:05:00.886Z,64.85
2022-10-22T06:07:03.848Z,69.35
2022-10-22T06:09:11.584Z,63.92
2022-10-22T06:11:17.667Z,57.60
2022-10-22T06:13:20.350Z,64.30
2022-10-22T06:15:23.091Z,59.63
2022-10-22T06:17:26.102Z,64.28
2022-10-22T06:19:30.991Z,62.20
2022-10-22T06:21:34.177Z,67.75
2022-10-22T06:23:37.753Z,61.67
2022-10-22T06:25:40.412Z,55.28
2022-10-22T06:27:49.771Z,59.87
2022-10-22T06:29:52.426Z,55.20
2022-10-22T06:31:55.329Z,56.40
2022-10-22T06:33:58.191Z,58.78
2022-10-22T06:36:07.696Z,52.50
2022-10-22T06:38:10.756Z,42.70
2022-10-22T06:40:14.370Z,45.53
2022-10-22T06:42:17.065Z,40.60
2022-10-22T06:44:21.314Z,41.50
2022-10-22T06:46:25.655Z,43.20
2022-10-22T06:48:28.808Z,48.45
2022-10-22T06:50:31.760Z,53.72
2022-10-22T06:52:34.681Z,56.37
2022-10-22T06:54:37.776Z,65.95
2022-10-22T06:56:40.771Z,70.47
2022-10-22T06:58:43.914Z,69.97
2022-10-22T07:00:47.951Z,62.45
2022-10-22T07:02:57.627Z,67.78
2022-10-22T07:05:02.306Z,70.18
2022-10-22T07:07:05.070Z,64.43
2022-10-22T07:09:08.042Z,64.97
2022-10-22T07:11:13.261Z,71.45
2022-10-22T07:13:15.995Z,71.57
2022-10-22T07:15:18.919Z,62.83
2022-10-22T07:17:23.012Z,63.78
2022-10-22T07:19:25.722Z,58.95
2022-10-22T07:21:28.671Z,59.15
2022-10-22T07:23:31.872Z,55.55
2022-10-22T07:25:34.582Z,51.85
2022-10-22T07:27:37.339Z,49.38
2022-10-22T07:29:40.035Z,48.47
2022-10-22T07:31:42.927Z,46.95
2022-10-22T07:33:47.283Z,52.33
2022-10-22T07:35:50.307Z,49.55
2022-10-22T07:37:52.999Z,47.63
2022-10-22T07:39:56.164Z,37.13
2022-10-22T07:41:59.737Z,36.45
2022-10-22T07:44:02.490Z,35.47
2022-10-22T07:46:05.437Z,36.28
2022-10-22T07:48:08.382Z,34.60
2022-10-22T07:50:12.999Z,38.42
2022-10-22T07:52:16.911Z,33.17
2022-10-22T07:54:19.786Z,36.03
2022-10-22T07:56:22.839Z,31.52
2022-10-22T07:58:25.877Z,27.02
2022-10-22T08:00:28.759Z,25.27
2022-10-22T08:02:31.650Z,26.30
2022-10-22T08:04:34.349Z,31.60
2022-10-22T08:06:39.557Z,22.85
2022-10-22T08:08:43.330Z,23.25
2022-10-22T08:10:47.684Z,26.00
2022-10-22T08:12:50.670Z,20.90
2022-10-22T08:14:53.877Z,22.83
2022-10-22T08:16:56.777Z,22.30
2022-10-22T08:18:59.567Z,18.02
2022-10-22T08:21:02.271Z,17.88
2022-10-22T08:23:06.517Z,17.02
2022-10-22T08:25:10.011Z,16.67
2022-10-22T08:27:13.044Z,15.27
2022-10-22T08:29:15.775Z,12.68
2022-10-22T08:31:18.804Z,12.77
2022-10-22T08:33:21.656Z,13.48
2022-10-22T08:35:24.347Z,9.13
2022-10-22T08:37:27.048Z,11.30
2022-10-22T08:39:31.154Z,8.50
2022-10-22T08:41:40.623Z,11.45
2022-10-22T08:44:02.743Z,10.10
2022-10-22T08:46:18.179Z,7.97
2022-10-22T08:48:35.224Z,8.45
2022-10-22T08:50:41.757Z,6.30
2022-10-22T08:52:47.136Z,6.78
2022-10-22T08:54:54.196Z,8.25
2022-10-22T08:57:12.721Z,7.47
2022-10-22T08:59:23.400Z,5.43
2022-10-22T09:01:34.454Z,6.57
2022-10-22T09:03:46.769Z,4.30
2022-10-22T09:05:57.681Z,5.57
2022-10-22T09:08:00.474Z,5.97
2022-10-22T09:10:05.288Z,4.07
2022-10-22T09:12:08.507Z,5.18
2022-10-22T09:16:20.906Z,8.55
2022-10-22T09:18:36.155Z,8.93
2022-10-22T09:20:45.782Z,3.13
2022-10-22T09:22:55.625Z,5.90
2022-10-22T09:25:02.488Z,5.95
2022-10-22T09:27:13.900Z,7.88
2022-10-22T09:29:22.410Z,3.78
2022-10-22T09:31:30.994Z,4.50
2022-10-22T09:33:33.870Z,3.55
2022-10-22T09:35:45.385Z,4.68
2022-10-22T09:37:51.228Z,5.45
2022-10-22T09:39:55.040Z,5.35
2022-10-22T09:41:57.755Z,4.03
2022-10-22T09:44:02.320Z,4.57
2022-10-22T09:46:07.078Z,2.88
2022-10-22T09:48:20.430Z,4.07
2022-10-22T09:50:28.061Z,2.47
2022-10-22T09:52:31.704Z,2.83
2022-10-22T09:54:43.007Z,5.25
2022-10-22T09:56:52.458Z,5.80
2022-10-22T09:58:58.239Z,5.45
2022-10-22T10:01:03.053Z,6.35
2022-10-22T10:03:05.923Z,2.80
2022-10-22T10:05:13.561Z,4.40
2022-10-22T10:07:18.715Z,7.00
2022-10-22T10:09:23.090Z,3.97
2022-10-22T10:11:33.414Z,3.10
2022-10-22T10:13:47.765Z,3.90
2022-10-22T10:15:56.893Z,9.07
2022-10-22T10:18:13.376Z,6.32
2022-10-22T10:20:28.658Z,3.90
2022-10-22T10:22:43.148Z,3.00
2022-10-22T10:25:03.208Z,2.33
2022-10-22T10:27:12.915Z,3.92
2022-10-22T10:29:29.716Z,4.15
2022-10-22T10:31:43.079Z,3.45
2022-10-22T10:33:56.780Z,2.92
2022-10-22T10:36:04.819Z,2.70
2022-10-22T10:38:27.335Z,4.72
2022-10-22T10:40:39.192Z,2.83
2022-10-22T10:42:45.647Z,3.65
2022-10-22T10:45:04.137Z,5.25
2022-10-22T10:47:21.389Z,5.43
2022-10-22T10:49:27.836Z,3.25
2022-10-22T10:51:43.255Z,6.97
2022-10-22T10:54:03.364Z,2.10
2022-10-22T10:56:15.177Z,5.22
2022-10-22T10:58:26.713Z,3.67
2022-10-22T11:00:35.393Z,7.85
2022-10-22T11:02:57.975Z,3.63
2022-10-22T11:05:13.828Z,4.97
2022-10-22T11:07:34.239Z,3.67
2022-10-22T11:09:41.417Z,3.13
2022-10-22T11:11:48.083Z,3.03
2022-10-22T11:13:54.072Z,3.05
2022-10-22T11:16:01.772Z,3.50
2022-10-22T11:18:13.533Z,4.15
2022-10-22T11:20:23.150Z,3.28
2022-10-22T11:22:30.971Z,3.25
2022-10-22T11:24:39.496Z,2.85
2022-10-22T11:26:47.090Z,3.42
2022-10-22T11:28:54.497Z,2.42
2022-10-22T11:31:02.840Z,4.63
2022-10-22T11:33:12.402Z,1.80
2022-10-22T11:35:25.606Z,7.40
2022-10-22T11:37:34.803Z,4.47
2022-10-22T11:39:46.923Z,3.95
2022-10-22T11:41:50.011Z,6.88
2022-10-22T11:44:00.030Z,2.58
2022-10-22T11:46:10.467Z,2.92
2022-10-22T11:48:20.232Z,2.20
2022-10-22T11:50:26.755Z,2.25
2022-10-22T11:52:41.688Z,2.65
2022-10-22T11:54:46.222Z,2.08
2022-10-22T11:56:53.899Z,3.08
2022-10-22T11:59:00.128Z,7.35
2022-10-22T12:01:24.322Z,3.33
2022-10-22T12:03:42.345Z,2.05
2022-10-22T12:05:47.903Z,2.40
2022-10-22T12:07:58.311Z,5.70
2022-10-22T12:10:01.632Z,5.40
2022-10-22T12:12:15.751Z,4.70
2022-10-22T12:14:26.294Z,3.58
2022-10-22T12:16:56.069Z,2.30
2022-10-22T12:19:06.543Z,3.80
2022-10-22T12:21:13.779Z,5.28
2022-10-22T12:23:16.998Z,3.88
2022-10-22T12:25:24.116Z,4.40
2022-10-22T12:27:29.919Z,2.92
2022-10-22T12:29:33.812Z,3.75
2022-10-22T12:31:38.673Z,1.80
2022-10-22T12:33:41.620Z,2.45
2022-10-22T12:35:46.892Z,4.13
2022-10-22T12:37:52.890Z,2.63
2022-10-22T12:39:55.589Z,2.35
2022-10-22T12:41:58.270Z,2.03
2022-10-22T12:44:01.536Z,3.20
2022-10-22T12:46:04.244Z,3.20
2022-10-22T12:48:15.443Z,7.47
2022-10-22T12:50:20.723Z,2.97
2022-10-22T12:52:25.721Z,4.32
2022-10-22T12:54:32.958Z,5.07
2022-10-22T12:56:38.336Z,6.03
2022-10-22T12:58:44.088Z,4.03
2022-10-22T13:00:48.886Z,6.75
2022-10-22T13:02:51.938Z,6.22
2022-10-22T13:05:18.307Z,5.25
2022-10-22T13:07:22.286Z,5.43
2022-10-22T13:09:27.655Z,6.35
2022-10-22T13:11:35.867Z,3.22
2022-10-22T13:13:45.785Z,5.20
2022-10-22T13:15:48.891Z,5.25
2022-10-22T13:17:51.602Z,7.05
2022-10-22T13:20:05.204Z,4.53
2022-10-22T13:22:25.754Z,8.73
2022-10-22T13:24:29.940Z,5.72
2022-10-22T13:26:37.058Z,5.00
2022-10-22T13:28:39.914Z,3.20
2022-10-22T13:30:53.792Z,7.25
2022-10-22T13:32:58.679Z,5.03
2022-10-22T13:35:03.988Z,8.77
2022-10-22T13:37:09.439Z,6.40
2022-10-22T13:39:17.313Z,4.63
2022-10-22T13:41:22.027Z,4.75
2022-10-22T13:43:26.931Z,6.40
2022-10-22T13:45:29.752Z,4.68
2022-10-22T13:47:33.656Z,5.55
2022-10-22T13:49:36.484Z,5.45
2022-10-22T13:51:40.075Z,7.68
2022-10-22T13:53:43.912Z,7.43
2022-10-22T13:55:47.515Z,4.60
2022-10-22T13:57:50.441Z,6.13
2022-10-22T13:59:54.542Z,4.22
2022-10-22T14:01:57.369Z,4.22
2022-10-22T14:04:02.098Z,4.70
2022-10-22T14:06:06.376Z,3.85
2022-10-22T14:08:13.137Z,5.03
2022-10-22T14:10:19.007Z,4.60
2022-10-22T14:12:21.949Z,3.63
2022-10-22T14:14:25.069Z,4.88
2022-10-22T14:16:31.205Z,3.15
2022-10-22T14:18:35.120Z,3.03
2022-10-22T14:20:41.883Z,4.18
2022-10-22T14:22:44.636Z,4.90
2022-10-22T14:24:48.092Z,6.10
2022-10-22T14:26:50.856Z,5.40
2022-10-22T14:29:10.756Z,4.20
2022-10-22T14:31:14.494Z,5.15
2022-10-22T14:33:27.155Z,4.75
2022-10-22T14:35:33.198Z,6.10
2022-10-22T14:37:36.107Z,4.40
2022-10-22T14:39:39.571Z,5.22
2022-10-22T14:41:43.431Z,4.25
2022-10-22T14:43:46.628Z,4.30
2022-10-22T14:45:49.531Z,2.30
2022-10-22T14:47:54.813Z,2.83
2022-10-22T14:49:58.994Z,4.57
2022-10-22T14:52:01.849Z,5.88
2022-10-22T14:54:04.815Z,4.82
2022-10-22T14:56:07.951Z,3.22
2022-10-22T14:58:12.227Z,4.97
2022-10-22T15:00:17.910Z,6.05
2022-10-22T15:02:20.865Z,5.68
2022-10-22T15:04:27.118Z,4.95
2022-10-22T15:06:31.448Z,6.65
2022-10-22T15:08:34.333Z,4.72
2022-10-22T15:10:37.171Z,4.25
2022-10-22T15:12:39.903Z,3.17
2022-10-22T15:14:42.711Z,3.40
2022-10-22T15:16:45.710Z,6.05
2022-10-22T15:18:48.475Z,5.25
2022-10-22T15:20:59.392Z,5.78
2022-10-22T15:23:03.561Z,2.35
2022-10-22T15:25:09.074Z,6.70
2022-10-22T15:27:13.600Z,4.30
2022-10-22T15:29:16.786Z,5.80
2022-10-22T15:31:44.159Z,5.05
2022-10-22T15:33:47.208Z,4.22
2022-10-22T15:35:50.283Z,5.22
2022-10-22T15:37:53.109Z,3.22
2022-10-22T15:39:57.168Z,7.63
2022-10-22T15:42:00.717Z,5.85
2022-10-22T15:44:03.518Z,4.25
2022-10-22T15:46:12.876Z,3.05
2022-10-22T15:48:15.624Z,6.25
2022-10-22T15:50:18.916Z,4.65
2022-10-22T15:52:22.507Z,15.00
2022-10-22T15:54:27.999Z,7.82
2022-10-22T15:56:33.055Z,7.60
2022-10-22T15:58:36.018Z,6.07
2022-10-22T16:00:38.820Z,5.10
2022-10-22T16:02:41.607Z,5.53
2022-10-22T16:04:44.388Z,4.43
2022-10-22T16:06:49.503Z,3.83
2022-10-22T16:08:52.297Z,5.53
2022-10-22T16:10:55.268Z,11.82
2022-10-22T16:12:59.368Z,10.18
2022-10-22T16:15:02.269Z,6.78
2022-10-22T16:17:06.431Z,7.07
2022-10-22T16:19:10.217Z,9.80
2022-10-22T16:21:14.863Z,8.27
2022-10-22T16:23:18.938Z,6.32
2022-10-22T16:25:22.069Z,7.18
2022-10-22T16:27:24.948Z,11.43
2022-10-22T16:29:29.451Z,2.85
2022-10-22T16:31:32.615Z,4.70
2022-10-22T16:33:41.451Z,7.22
2022-10-22T16:35:49.699Z,5.72
2022-10-22T16:37:52.531Z,6.55
2022-10-22T16:39:55.487Z,4.93
2022-10-22T16:41:58.410Z,8.02
2022-10-22T16:44:03.008Z,9.98
2022-10-22T16:46:07.870Z,5.50
2022-10-22T16:48:11.448Z,7.05
2022-10-22T16:50:14.229Z,12.02
2022-10-22T16:52:17.018Z,8.07
2022-10-22T16:54:21.622Z,9.52
2022-10-22T16:56:25.599Z,7.57
2022-10-22T16:58:28.580Z,8.75
2022-10-22T17:00:31.512Z,7.28
2022-10-22T17:02:37.273Z,10.98
2022-10-22T17:04:40.016Z,11.02
2022-10-22T17:06:43.214Z,10.95
2022-10-22T17:08:45.952Z,10.63
2022-10-22T17:10:48.776Z,5.97
2022-10-22T17:12:51.507Z,9.43
2022-10-22T17:14:54.220Z,6.78
2022-10-22T17:16:56.951Z,9.07
2022-10-22T17:19:04.669Z,9.32
2022-10-22T17:21:09.151Z,11.95
2022-10-22T17:23:14.019Z,12.30
2022-10-22T17:25:20.344Z,12.98
2022-10-22T17:27:23.238Z,14.35
2022-10-22T17:29:26.277Z,11.88
2022-10-22T17:31:32.514Z,12.88
2022-10-22T17:33:36.492Z,26.60
2022-10-22T17:35:42.964Z,59.95
2022-10-22T17:37:46.162Z,55.25
2022-10-22T17:39:48.920Z,57.08
2022-10-22T17:41:51.794Z,47.47
2022-10-22T17:43:56.271Z,52.15
2022-10-22T17:46:05.420Z,39.08
2022-10-22T17:48:08.351Z,34.05
2022-10-22T17:50:11.615Z,34.85
2022-10-22T17:52:16.413Z,35.35
2022-10-22T17:54:19.240Z,28.63
2022-10-22T17:56:23.619Z,31.08
2022-10-22T17:58:26.312Z,25.83
2022-10-22T18:00:32.247Z,23.88
2022-10-22T18:02:35.045Z,20.40
2022-10-22T18:04:37.947Z,22.42
2022-10-22T18:06:40.874Z,20.73
2022-10-22T18:08:45.175Z,25.92
2022-10-22T18:10:48.056Z,18.63
2022-10-22T18:12:50.911Z,17.08
2022-10-22T18:14:54.631Z,21.30
2022-10-22T18:16:57.385Z,23.27
2022-10-22T18:19:00.159Z,14.82
2022-10-22T18:21:03.743Z,19.38
2022-10-22T18:23:06.605Z,18.27
2022-10-22T18:25:12.369Z,14.65
2022-10-22T18:27:15.173Z,17.63
2022-10-22T18:29:20.418Z,16.48
2022-10-22T18:31:25.462Z,17.45
2022-10-22T18:33:28.157Z,14.57
2022-10-22T18:35:33.223Z,17.48
2022-10-22T18:37:36.368Z,19.67
2022-10-22T18:39:39.350Z,14.98
2022-10-22T18:41:43.533Z,15.43
2022-10-22T18:43:51.137Z,16.87
2022-10-22T18:45:54.339Z,13.23
2022-10-22T18:47:58.698Z,21.40
2022-10-22T18:50:01.840Z,19.50
2022-10-22T18:52:04.587Z,24.63
2022-10-22T18:54:22.150Z,23.38
2022-10-22T18:56:26.349Z,22.65
2022-10-22T18:58:30.460Z,23.42
2022-10-22T19:00:34.469Z,19.30
2022-10-22T19:02:39.242Z,22.00
2022-10-22T19:04:42.290Z,19.80
2022-10-22T19:06:45.918Z,19.60
2022-10-22T19:08:51.302Z,23.23
2022-10-22T19:10:54.363Z,20.02
2022-10-22T19:12:57.126Z,19.98
2022-10-22T19:15:01.498Z,15.00
2022-10-22T19:17:04.370Z,17.63
2022-10-22T19:19:08.506Z,17.58
2022-10-22T19:21:12.646Z,16.10
2022-10-22T19:23:19.955Z,19.15
2022-10-22T19:25:23.847Z,19.65
2022-10-22T19:27:26.788Z,15.07
2022-10-22T19:29:29.642Z,21.07
2022-10-22T19:31:33.861Z,16.00
2022-10-22T19:33:38.224Z,12.47
2022-10-22T19:35:40.940Z,14.82
2022-10-22T19:37:48.195Z,18.23
2022-10-22T19:39:51.528Z,15.82
2022-10-22T19:41:54.335Z,15.07
2022-10-22T19:43:58.661Z,14.17
2022-10-22T19:46:01.622Z,14.10
2022-10-22T19:48:06.260Z,11.13
2022-10-22T19:50:09.554Z,13.10
2022-10-22T19:52:12.774Z,16.03
2022-10-22T19:54:18.675Z,13.33
2022-10-22T19:56:22.272Z,18.37
2022-10-22T19:58:25.333Z,14.10
2022-10-22T20:00:29.285Z,12.83
2022-10-22T20:02:32.257Z,13.13
2022-10-22T20:04:39.871Z,11.00
2022-10-22T20:06:42.598Z,13.47
2022-10-22T20:08:46.212Z,9.60
2022-10-22T20:10:49.819Z,12.07
2022-10-22T20:12:53.184Z,12.60
2022-10-22T20:14:55.921Z,11.73
2022-10-22T20:16:58.892Z,13.47
2022-10-22T20:19:03.552Z,14.97
2022-10-22T20:21:08.876Z,15.40
2022-10-22T20:23:11.876Z,15.20
2022-10-22T20:25:14.698Z,21.80
2022-10-22T20:27:17.832Z,15.80
2022-10-22T20:29:20.814Z,14.73
2022-10-22T20:31:28.251Z,13.50
2022-10-22T20:33:31.142Z,13.60
2022-10-22T20:35:33.868Z,14.33
2022-10-22T20:37:38.029Z,13.60
2022-10-22T20:39:40.844Z,10.50
2022-10-22T20:41:43.936Z,12.27
2022-10-22T20:43:47.322Z,19.20
2022-10-22T20:45:50.334Z,15.90
2022-10-22T20:48:02.082Z,16.80
2022-10-22T20:50:06.066Z,18.97
2022-10-22T20:52:08.839Z,13.53
2022-10-22T20:54:14.489Z,13.87
2022-10-22T20:56:18.734Z,14.23
2022-10-22T20:58:24.518Z,14.50
2022-10-22T21:00:29.416Z,12.53
2022-10-22T21:02:32.154Z,13.17
2022-10-22T21:04:35.077Z,11.23
2022-10-22T21:06:40.209Z,17.40
2022-10-22T21:08:43.233Z,13.53
2022-10-22T21:10:49.069Z,15.80
2022-10-22T21:12:52.028Z,17.27
2022-10-22T21:14:54.795Z,15.50
2022-10-22T21:16:59.025Z,13.40
2022-10-22T21:19:02.572Z,11.23
2022-10-22T21:21:05.951Z,15.00
2022-10-22T21:23:09.623Z,12.00
2022-10-22T21:25:12.871Z,12.87
2022-10-22T21:27:16.982Z,12.23
2022-10-22T21:29:20.817Z,13.77
2022-10-22T21:31:25.973Z,12.67
2022-10-22T21:33:28.958Z,14.93
2022-10-22T21:35:33.452Z,14.63
2022-10-22T21:37:36.216Z,11.73
2022-10-22T21:39:41.978Z,9.47
2022-10-22T21:41:45.465Z,11.23
2022-10-22T21:43:50.152Z,10.83
2022-10-22T21:45:52.941Z,16.10
2022-10-22T21:47:55.672Z,11.83
2022-10-22T21:49:58.733Z,11.63
2022-10-22T21:52:02.637Z,12.10
2022-10-22T21:54:06.194Z,13.20
2022-10-22T21:56:15.204Z,15.83
2022-10-22T21:58:17.994Z,9.07
2022-10-22T22:00:23.058Z,13.60
2022-10-22T22:02:27.165Z,10.70
2022-10-22T22:04:29.952Z,8.00
2022-10-22T22:06:33.770Z,10.90
2022-10-22T22:08:37.121Z,12.63
2022-10-22T22:10:40.002Z,17.37
2022-10-22T22:12:43.510Z,8.93
2022-10-22T22:14:46.524Z,11.67
2022-10-22T22:16:50.857Z,10.43
2022-10-22T22:18:53.701Z,11.40
2022-10-22T22:20:56.837Z,12.17
2022-10-22T22:22:59.795Z,12.83
2022-10-22T22:25:02.542Z,9.80
2022-10-22T22:27:05.599Z,10.50
2022-10-22T22:29:08.508Z,11.43
2022-10-22T22:31:16.611Z,12.60
2022-10-22T22:33:24.890Z,13.80
2022-10-22T22:35:27.719Z,11.93
2022-10-22T22:37:30.485Z,10.97
2022-10-22T22:39:33.219Z,8.03
2022-10-22T22:41:36.083Z,10.90
2022-10-22T22:43:38.905Z,14.27
2022-10-22T22:45:41.655Z,10.77
2022-10-22T22:47:44.634Z,11.77
2022-10-22T22:49:48.884Z,16.07
2022-10-22T22:51:51.641Z,12.57
2022-10-22T22:53:54.438Z,8.73
2022-10-22T22:56:08.119Z,13.10
2022-10-22T22:58:11.037Z,16.00
2022-10-22T23:00:14.612Z,11.33
2022-10-22T23:02:17.776Z,9.73
2022-10-22T23:04:23.490Z,9.07
2022-10-22T23:06:29.536Z,12.20
2022-10-22T23:08:32.392Z,11.13
2022-10-22T23:10:35.130Z,14.33
2022-10-22T23:12:38.055Z,11.50
2022-10-22T23:14:40.757Z,13.80
2022-10-22T23:16:46.099Z,8.87
2022-10-22T23:18:49.857Z,9.50
2022-10-22T23:20:53.094Z,11.77
2022-10-22T23:22:57.086Z,8.77
2022-10-22T23:25:00.249Z,9.17
2022-10-22T23:27:04.415Z,11.80
2022-10-22T23:29:09.376Z,13.57
2022-10-22T23:31:14.024Z,10.97
2022-10-22T23:33:19.180Z,6.80
2022-10-22T23:35:22.409Z,9.30
2022-10-22T23:37:25.551Z,9.50
2022-10-22T23:39:30.388Z,10.67
2022-10-22T23:41:33.470Z,8.27
2022-10-22T23:43:37.662Z,7.87
2022-10-22T23:45:40.670Z,8.73
2022-10-22T23:47:44.120Z,8.07
2022-10-22T23:49:47.152Z,12.93
2022-10-22T23:51:49.888Z,11.00
2022-10-22T23:53:56.804Z,6.47
2022-10-22T23:56:05.200Z,8.37
2022-10-22T23:58:08.214Z,11.23
